createdAt,value
2022-09-28T00:01:25.616Z,96401.16
2022-09-28T00:03:59.937Z,96392.89
2022-09-28T00:06:30.876Z,96394.75
2022-09-28T00:08:59.255Z,96392.68
2022-09-28T00:11:28.313Z,96388.79
2022-09-28T00:14:02.411Z,96392.13
2022-09-28T00:16:50.911Z,96394.44
2022-09-28T00:19:19.077Z,96393.95
2022-09-28T00:21:48.078Z,96388.34
2022-09-28T00:24:16.226Z,96389.75
2022-09-28T00:26:51.663Z,96397.40
2022-09-28T00:29:32.656Z,96401.02
2022-09-28T00:32:12.149Z,96393.24
2022-09-28T00:34:45.986Z,96384.52
2022-09-28T00:37:15.722Z,96380.74
2022-09-28T00:39:44.419Z,96382.45
2022-09-28T00:42:18.381Z,96383.73
2022-09-28T00:44:51.560Z,96383.42
2022-09-28T00:47:41.895Z,96386.52
2022-09-28T00:50:36.350Z,96395.75
2022-09-28T00:53:20.080Z,96393.27
2022-09-28T00:55:57.480Z,96387.41
2022-09-28T00:58:32.307Z,96391.23
2022-09-28T01:01:00.915Z,96387.33
2022-09-28T01:03:30.317Z,96384.70
2022-09-28T01:06:02.764Z,96393.70
2022-09-28T01:08:34.481Z,96393.77
2022-09-28T01:11:02.702Z,96398.02
2022-09-28T01:13:32.836Z,96397.58
2022-09-28T01:16:08.191Z,96399.91
2022-09-28T01:18:44.226Z,96396.58
2022-09-28T01:21:23.856Z,96398.45
2022-09-28T01:24:21.936Z,96400.48
2022-09-28T01:27:04.939Z,96400.98
2022-09-28T01:29:43.514Z,96400.14
2022-09-28T01:32:43.292Z,96403.96
2022-09-28T01:35:33.542Z,96398.42
2022-09-28T01:38:14.887Z,96409.11
2022-09-28T01:40:45.319Z,96416.64
2022-09-28T01:43:21.360Z,96422.88
2022-09-28T01:46:19.398Z,96420.30
2022-09-28T01:48:56.615Z,96420.67
2022-09-28T01:51:47.605Z,96422.38
2022-09-28T01:54:37.792Z,96420.02
2022-09-28T01:57:18.711Z,96416.75
2022-09-28T02:00:01.098Z,96415.62
2022-09-28T02:02:43.219Z,96411.08
2022-09-28T02:05:21.076Z,96413.36
2022-09-28T02:08:13.482Z,96419.52
2022-09-28T02:10:54.307Z,96419.60
2022-09-28T02:13:33.022Z,96419.83
2022-09-28T02:16:14.430Z,96417.48
2022-09-28T02:18:43.327Z,96416.36
2022-09-28T02:21:47.115Z,96413.81
2022-09-28T02:25:03.965Z,96418.11
2022-09-28T02:27:45.010Z,96422.88
2022-09-28T02:30:14.198Z,96426.36
2022-09-28T02:32:47.304Z,96427.30
2022-09-28T02:35:19.073Z,96432.95
2022-09-28T02:37:47.348Z,96436.34
2022-09-28T02:40:22.000Z,96436.16
2022-09-28T02:43:22.664Z,96443.95
2022-09-28T02:46:17.736Z,96450.27
2022-09-28T02:49:21.741Z,96448.80
2022-09-28T02:52:18.126Z,96442.33
2022-09-28T02:55:24.599Z,96433.00
2022-09-28T02:58:27.919Z,96427.17
2022-09-28T03:01:36.456Z,96435.09
2022-09-28T03:04:37.624Z,96439.68
2022-09-28T03:07:21.162Z,96442.11
2022-09-28T03:10:33.740Z,96438.34
2022-09-28T03:13:04.008Z,96441.34
2022-09-28T03:15:34.919Z,96444.34
2022-09-28T03:18:03.526Z,96448.83
2022-09-28T03:20:33.625Z,96445.56
2022-09-28T03:23:23.828Z,96447.19
2022-09-28T03:25:51.873Z,96446.70
2022-09-28T03:28:21.308Z,96449.03
2022-09-28T03:30:50.509Z,96449.66
2022-09-28T03:33:19.793Z,96458.83
2022-09-28T03:35:50.484Z,96459.95
2022-09-28T03:38:19.512Z,96460.52
2022-09-28T03:41:00.542Z,96458.51
2022-09-28T03:43:31.987Z,96459.04
2022-09-28T03:46:02.375Z,96465.23
2022-09-28T03:48:35.480Z,96473.61
2022-09-28T03:51:09.161Z,96478.89
2022-09-28T03:53:37.535Z,96478.25
2022-09-28T03:56:15.456Z,96482.36
2022-09-28T03:58:43.682Z,96487.53
2022-09-28T04:01:17.565Z,96489.56
2022-09-28T04:03:47.701Z,96488.40
2022-09-28T04:06:15.877Z,96484.70
2022-09-28T04:08:43.979Z,96480.84
2022-09-28T04:11:12.556Z,96485.55
2022-09-28T04:13:41.325Z,96492.09
2022-09-28T04:16:12.103Z,96488.83
2022-09-28T04:18:43.031Z,96495.21
2022-09-28T04:21:14.122Z,96499.02
2022-09-28T04:23:49.083Z,96498.61
2022-09-28T04:26:24.786Z,96495.11
2022-09-28T04:29:11.843Z,96500.73
2022-09-28T04:31:47.234Z,96507.21
2022-09-28T04:34:20.032Z,96506.55
2022-09-28T04:36:49.252Z,96506.52
2022-09-28T04:39:21.577Z,96505.02
2022-09-28T04:41:53.035Z,96505.98
2022-09-28T04:44:21.141Z,96508.05
2022-09-28T04:46:51.148Z,96509.89
2022-09-28T04:49:31.207Z,96511.20
2022-09-28T04:52:14.658Z,96511.02
2022-09-28T04:54:46.387Z,96512.67
2022-09-28T04:57:14.635Z,96512.85
2022-09-28T04:59:42.793Z,96515.29
2022-09-28T05:02:12.136Z,96524.31
2022-09-28T05:05:03.487Z,96530.77
2022-09-28T05:07:59.376Z,96532.04
2022-09-28T05:10:27.587Z,96535.95
2022-09-28T05:12:55.687Z,96540.66
2022-09-28T05:15:23.756Z,96543.26
2022-09-28T05:17:53.382Z,96542.92
2022-09-28T05:20:42.248Z,96534.78
2022-09-28T05:23:12.536Z,96532.86
2022-09-28T05:25:43.434Z,96539.39
2022-09-28T05:28:27.986Z,96550.61
2022-09-28T05:31:14.902Z,96551.39
2022-09-28T05:34:29.867Z,96537.14
2022-09-28T05:36:58.124Z,96542.67
2022-09-28T05:39:26.281Z,96557.64
2022-09-28T05:41:57.809Z,96555.70
2022-09-28T05:44:26.052Z,96556.17
2022-09-28T05:46:55.151Z,96562.38
2022-09-28T05:49:24.285Z,96561.50
2022-09-28T05:51:52.438Z,96566.30
2022-09-28T05:54:21.738Z,96570.76
2022-09-28T05:56:51.915Z,96575.21
2022-09-28T05:59:20.029Z,96580.70
2022-09-28T06:01:48.129Z,96580.95
2022-09-28T06:04:16.845Z,96579.76
2022-09-28T06:06:45.781Z,96580.71
2022-09-28T06:09:14.023Z,96584.20
2022-09-28T06:11:59.614Z,96587.05
2022-09-28T06:14:42.360Z,96582.88
2022-09-28T06:17:12.390Z,96585.79
2022-09-28T06:19:40.543Z,96586.40
2022-09-28T06:22:31.109Z,96590.45
2022-09-28T06:25:06.885Z,96596.45
2022-09-28T06:27:35.043Z,96607.77
2022-09-28T06:30:04.077Z,96608.73
2022-09-28T06:32:35.279Z,96593.73
2022-09-28T06:35:03.865Z,96583.27
2022-09-28T06:37:33.076Z,96587.45
2022-09-28T06:40:02.331Z,96600.41
2022-09-28T06:42:31.438Z,96605.38
2022-09-28T06:45:55.936Z,96604.27
2022-09-28T06:49:23.239Z,96606.02
2022-09-28T06:52:10.253Z,96608.49
2022-09-28T06:54:56.659Z,96604.49
2022-09-28T06:57:43.340Z,96604.15
2022-09-28T07:00:13.322Z,96611.81
2022-09-28T07:02:45.753Z,96614.51
2022-09-28T07:06:10.296Z,96611.52
2022-09-28T07:08:46.069Z,96611.73
2022-09-28T07:11:41.797Z,96611.06
2022-09-28T07:14:42.030Z,96608.17
2022-09-28T07:17:14.057Z,96609.77
2022-09-28T07:19:44.648Z,96617.75
2022-09-28T07:22:18.995Z,96624.14
2022-09-28T07:24:48.775Z,96622.92
2022-09-28T07:28:06.868Z,96624.07
2022-09-28T07:31:25.370Z,96623.72
2022-09-28T07:34:11.995Z,96629.96
2022-09-28T07:36:58.932Z,96631.80
2022-09-28T07:39:27.185Z,96633.20
2022-09-28T07:41:59.675Z,96634.66
2022-09-28T07:44:31.102Z,96633.82
2022-09-28T07:46:59.844Z,96636.13
2022-09-28T07:49:40.325Z,96642.32
2022-09-28T07:52:36.288Z,96644.02
2022-09-28T07:55:23.807Z,96640.87
2022-09-28T07:58:11.403Z,96636.31
2022-09-28T08:01:32.512Z,96643.67
2022-09-28T08:04:01.343Z,96643.20
2022-09-28T08:06:30.455Z,96646.03
2022-09-28T08:09:00.073Z,96651.96
2022-09-28T08:11:49.943Z,96649.64
2022-09-28T08:14:35.306Z,96654.71
2022-09-28T08:17:17.025Z,96657.74
2022-09-28T08:20:06.620Z,96665.57
2022-09-28T08:22:35.407Z,96665.17
2022-09-28T08:25:05.092Z,96668.67
2022-09-28T08:27:33.810Z,96665.21
2022-09-28T08:30:02.636Z,96668.39
2022-09-28T08:32:55.287Z,96668.13
2022-09-28T08:35:42.449Z,96659.48
2022-09-28T08:38:19.579Z,96659.38
2022-09-28T08:40:57.651Z,96657.33
2022-09-28T08:44:12.448Z,96654.50
2022-09-28T08:47:07.921Z,96657.45
2022-09-28T08:50:33.071Z,96659.04
2022-09-28T08:54:06.991Z,96657.70
2022-09-28T08:56:54.605Z,96651.94
2022-09-28T08:59:28.788Z,96653.84
2022-09-28T09:02:04.865Z,96660.65
2022-09-28T09:04:34.658Z,96666.27
2022-09-28T09:07:54.449Z,96668.36
2022-09-28T09:10:49.844Z,96672.30
2022-09-28T09:13:56.085Z,96669.66
2022-09-28T09:16:45.820Z,96660.06
2022-09-28T09:19:42.078Z,96662.45
2022-09-28T09:22:43.635Z,96667.19
2022-09-28T09:25:44.961Z,96665.71
2022-09-28T09:28:58.376Z,96666.52
2022-09-28T09:31:49.829Z,96676.64
2022-09-28T09:34:46.712Z,96680.89
2022-09-28T09:37:54.159Z,96680.63
2022-09-28T09:41:10.403Z,96683.25
2022-09-28T09:44:42.716Z,96685.92
2022-09-28T09:48:02.356Z,96689.36
2022-09-28T09:50:50.616Z,96686.77
2022-09-28T09:53:44.586Z,96688.27
2022-09-28T09:56:28.320Z,96678.21
2022-09-28T09:59:27.771Z,96669.91
2022-09-28T10:02:35.257Z,96672.36
2022-09-28T10:05:13.343Z,96669.64
2022-09-28T10:08:03.226Z,96672.45
2022-09-28T10:10:38.662Z,96667.48
2022-09-28T10:13:10.289Z,96666.53
2022-09-28T10:15:41.567Z,96670.67
2022-09-28T10:18:19.152Z,96669.72
2022-09-28T10:21:05.897Z,96669.94
2022-09-28T10:23:57.619Z,96679.01
2022-09-28T10:26:59.045Z,96676.85
2022-09-28T10:29:39.115Z,96676.69
2022-09-28T10:32:36.731Z,96680.83
2022-09-28T10:35:24.450Z,96674.62
2022-09-28T10:38:14.928Z,96673.05
2022-09-28T10:40:55.813Z,96670.60
2022-09-28T10:44:07.135Z,96664.97
2022-09-28T10:46:59.472Z,96670.50
2022-09-28T10:49:37.266Z,96667.24
2022-09-28T10:52:32.057Z,96671.88
2022-09-28T10:55:01.388Z,96673.27
2022-09-28T10:57:39.988Z,96669.56
2022-09-28T11:00:31.494Z,96665.95
2022-09-28T11:03:34.147Z,96662.85
2022-09-28T11:06:08.485Z,96658.41
2022-09-28T11:08:42.860Z,96656.23
2022-09-28T11:11:19.977Z,96654.07
2022-09-28T11:13:51.541Z,96653.48
2022-09-28T11:16:36.296Z,96652.79
2022-09-28T11:19:28.611Z,96650.18
2022-09-28T11:21:56.832Z,96649.27
2022-09-28T11:24:34.937Z,96651.96
2022-09-28T11:27:04.388Z,96645.34
2022-09-28T11:29:38.621Z,96646.82
2022-09-28T11:33:46.778Z,96646.43
2022-09-28T11:37:11.241Z,96638.77
2022-09-28T11:40:36.856Z,96646.48
2022-09-28T11:43:31.553Z,96651.04
2022-09-28T11:46:26.054Z,96647.13
2022-09-28T11:49:03.023Z,96648.05
2022-09-28T11:51:36.344Z,96644.11
2022-09-28T11:54:20.531Z,96646.98
2022-09-28T11:56:50.535Z,96646.31
2022-09-28T11:59:28.445Z,96650.02
2022-09-28T12:02:10.824Z,96656.14
2022-09-28T12:05:21.257Z,96657.33
2022-09-28T12:08:20.795Z,96660.16
2022-09-28T12:11:15.704Z,96659.37
2022-09-28T12:14:06.856Z,96664.52
2022-09-28T12:17:07.150Z,96666.13
2022-09-28T12:19:49.604Z,96662.56
2022-09-28T12:22:25.560Z,96661.30
2022-09-28T12:24:57.728Z,96656.94
2022-09-28T12:27:45.202Z,96658.14
2022-09-28T12:30:20.383Z,96663.06
2022-09-28T12:33:07.440Z,96664.42
2022-09-28T12:36:07.893Z,96668.85
2022-09-28T12:39:30.855Z,96665.92
2022-09-28T12:42:08.182Z,96669.89
2022-09-28T12:45:27.743Z,96673.70
2022-09-28T12:48:25.132Z,96671.55
2022-09-28T12:51:18.779Z,96673.91
2022-09-28T12:53:49.552Z,96677.27
2022-09-28T12:56:56.875Z,96679.67
2022-09-28T12:59:39.896Z,96676.08
2022-09-28T13:03:02.207Z,96676.94
2022-09-28T13:06:20.268Z,96670.40
2022-09-28T13:09:06.549Z,96674.54
2022-09-28T13:11:58.765Z,96675.81
2022-09-28T13:15:32.781Z,96680.08
2022-09-28T13:18:13.304Z,96683.84
2022-09-28T13:21:11.120Z,96681.23
2022-09-28T13:23:51.813Z,96677.77
2022-09-28T13:26:31.832Z,96679.51
2022-09-28T13:29:11.082Z,96677.72
2022-09-28T13:31:51.953Z,96677.17
2022-09-28T13:34:36.529Z,96675.92
2022-09-28T13:37:18.923Z,96684.61
2022-09-28T13:39:53.431Z,96687.13
2022-09-28T13:42:31.908Z,96688.46
2022-09-28T13:45:17.531Z,96687.96
2022-09-28T13:47:51.774Z,96687.80
2022-09-28T13:51:00.169Z,96687.23
2022-09-28T13:53:36.868Z,96687.63
2022-09-28T13:56:04.923Z,96689.66
2022-09-28T13:58:48.398Z,96688.78
2022-09-28T14:01:42.567Z,96686.42
2022-09-28T14:04:22.540Z,96683.31
2022-09-28T14:07:10.665Z,96685.88
2022-09-28T14:09:47.925Z,96687.27
2022-09-28T14:12:34.295Z,96687.11
2022-09-28T14:15:26.489Z,96686.02
2022-09-28T14:18:23.927Z,96692.61
2022-09-28T14:21:03.175Z,96689.86
2022-09-28T14:23:43.743Z,96694.65
2022-09-28T14:26:11.728Z,96693.36
2022-09-28T14:28:56.584Z,96697.33
2022-09-28T14:31:28.588Z,96697.27
2022-09-28T14:34:03.407Z,96699.11
2022-09-28T14:37:01.712Z,96697.16
2022-09-28T14:39:52.959Z,96695.30
2022-09-28T14:42:25.456Z,96688.58
2022-09-28T14:45:06.261Z,96689.66
2022-09-28T14:47:42.394Z,96689.08
2022-09-28T14:50:28.388Z,96690.27
2022-09-28T14:53:15.127Z,96696.70
2022-09-28T14:55:50.169Z,96695.02
2022-09-28T14:58:23.825Z,96690.63
2022-09-28T15:01:02.843Z,96688.59
2022-09-28T15:03:34.374Z,96694.09
2022-09-28T15:06:02.497Z,96698.13
2022-09-28T15:08:39.482Z,96694.52
2022-09-28T15:11:17.072Z,96693.55
2022-09-28T15:13:45.200Z,96689.29
2022-09-28T15:16:16.919Z,96686.83
2022-09-28T15:19:04.053Z,96686.03
2022-09-28T15:21:40.103Z,96689.45
2022-09-28T15:24:34.708Z,96692.56
2022-09-28T15:27:23.858Z,96687.30
2022-09-28T15:30:18.533Z,96695.45
2022-09-28T15:32:46.630Z,96698.13
2022-09-28T15:35:28.103Z,96698.80
2022-09-28T15:37:56.281Z,96699.05
2022-09-28T15:40:37.792Z,96697.42
2022-09-28T15:43:33.236Z,96700.09
2022-09-28T15:46:13.746Z,96700.24
2022-09-28T15:48:59.768Z,96695.95
2022-09-28T15:51:29.537Z,96699.17
2022-09-28T15:54:20.613Z,96702.70
2022-09-28T15:57:02.525Z,96702.59
2022-09-28T15:59:39.801Z,96700.00
2022-09-28T16:02:18.404Z,96700.02
2022-09-28T16:04:51.696Z,96707.20
2022-09-28T16:07:40.591Z,96712.73
2022-09-28T16:10:11.604Z,96720.46
2022-09-28T16:12:55.107Z,96716.73
2022-09-28T16:15:36.838Z,96713.61
2022-09-28T16:18:14.666Z,96717.17
2022-09-28T16:20:43.655Z,96716.95
2022-09-28T16:23:20.751Z,96719.61
2022-09-28T16:25:52.481Z,96716.04
2022-09-28T16:28:51.741Z,96720.49
2022-09-28T16:31:20.388Z,96723.27
2022-09-28T16:34:11.575Z,96726.36
2022-09-28T16:36:46.226Z,96726.24
2022-09-28T16:39:16.917Z,96724.84
2022-09-28T16:42:01.771Z,96725.02
2022-09-28T16:44:32.728Z,96724.34
2022-09-28T16:47:01.373Z,96728.45
2022-09-28T16:49:32.189Z,96733.06
2022-09-28T16:52:02.417Z,96735.58
2022-09-28T16:54:49.408Z,96735.83
2022-09-28T16:57:17.605Z,96736.37
2022-09-28T16:59:45.744Z,96735.91
2022-09-28T17:02:46.256Z,96734.10
2022-09-28T17:05:10.283Z,96736.11
2022-09-28T17:07:39.532Z,96729.02
2022-09-28T17:11:09.862Z,96732.38
2022-09-28T17:13:34.704Z,96736.50
2022-09-28T17:16:08.990Z,96735.35
2022-09-28T17:18:39.187Z,96736.01
2022-09-28T17:21:19.156Z,96736.41
2022-09-28T17:23:49.869Z,96731.05
2022-09-28T17:26:34.492Z,96731.16
2022-09-28T17:29:02.932Z,96734.71
2022-09-28T17:31:31.128Z,96734.60
2022-09-28T17:33:59.263Z,96727.02
2022-09-28T17:36:27.344Z,96726.90
2022-09-28T17:38:55.676Z,96731.13
2022-09-28T17:41:23.822Z,96730.14
2022-09-28T17:43:52.046Z,96734.82
2022-09-28T17:46:33.644Z,96742.18
2022-09-28T17:49:05.121Z,96743.84
2022-09-28T17:51:37.603Z,96742.88
2022-09-28T17:54:08.061Z,96745.30
2022-09-28T17:56:37.166Z,96743.74
2022-09-28T17:59:10.624Z,96748.33
2022-09-28T18:01:40.333Z,96750.15
2022-09-28T18:04:22.997Z,96751.83
2022-09-28T18:07:00.534Z,96758.10
2022-09-28T18:09:28.799Z,96758.05
2022-09-28T18:12:04.142Z,96760.53
2022-09-28T18:14:32.659Z,96762.08
2022-09-28T18:17:00.748Z,96765.00
2022-09-28T18:19:32.168Z,96766.01
2022-09-28T18:22:01.793Z,96767.08
2022-09-28T18:24:32.572Z,96769.16
2022-09-28T18:27:00.870Z,96768.88
2022-09-28T18:29:33.136Z,96764.41
2022-09-28T18:32:03.170Z,96765.55
2022-09-28T18:34:31.403Z,96766.94
2022-09-28T18:36:59.546Z,96764.45
2022-09-28T18:39:27.744Z,96766.80
2022-09-28T18:41:56.195Z,96767.87
2022-09-28T18:44:24.282Z,96769.11
2022-09-28T18:46:52.392Z,96766.65
2022-09-28T18:49:22.246Z,96763.77
2022-09-28T18:51:50.385Z,96764.99
2022-09-28T18:54:18.555Z,96764.35
2022-09-28T18:56:46.679Z,96760.55
2022-09-28T18:59:15.030Z,96761.29
2022-09-28T19:01:43.291Z,96759.66
2022-09-28T19:04:13.613Z,96760.60
2022-09-28T19:06:44.564Z,96760.17
2022-09-28T19:09:13.187Z,96765.81
2022-09-28T19:11:41.525Z,96768.59
2022-09-28T19:14:11.229Z,96771.11
2022-09-28T19:16:39.356Z,96771.70
2022-09-28T19:19:07.623Z,96773.77
2022-09-28T19:21:35.852Z,96770.98
2022-09-28T19:24:04.289Z,96769.96
2022-09-28T19:26:33.748Z,96773.95
2022-09-28T19:29:03.110Z,96774.73
2022-09-28T19:31:32.646Z,96777.59
2022-09-28T19:34:01.087Z,96773.81
2022-09-28T19:36:30.263Z,96774.27
2022-09-28T19:39:03.617Z,96773.09
2022-09-28T19:41:43.395Z,96772.59
2022-09-28T19:44:24.848Z,96766.30
2022-09-28T19:47:07.153Z,96759.71
2022-09-28T19:49:39.158Z,96761.02
2022-09-28T19:52:16.944Z,96758.51
2022-09-28T19:54:57.831Z,96757.77
2022-09-28T19:57:32.665Z,96758.88
2022-09-28T20:00:03.590Z,96764.56
2022-09-28T20:02:36.893Z,96760.07
2022-09-28T20:05:05.468Z,96761.55
2022-09-28T20:07:34.823Z,96764.25
2022-09-28T20:10:03.118Z,96761.20
2022-09-28T20:12:31.638Z,96768.63
2022-09-28T20:14:59.748Z,96767.03
2022-09-28T20:17:27.917Z,96765.94
2022-09-28T20:19:56.029Z,96766.44
2022-09-28T20:22:24.242Z,96768.42
2022-09-28T20:24:52.334Z,96769.37
2022-09-28T20:27:24.336Z,96775.95
2022-09-28T20:29:54.423Z,96772.08
2022-09-28T20:32:22.564Z,96773.05
2022-09-28T20:34:50.765Z,96771.45
2022-09-28T20:37:19.423Z,96771.50
2022-09-28T20:39:47.634Z,96770.98
2022-09-28T20:42:15.803Z,96773.70
2022-09-28T20:44:44.200Z,96775.45
2022-09-28T20:47:12.267Z,96774.90
2022-09-28T20:49:40.453Z,96776.24
2022-09-28T20:52:09.030Z,96772.98
2022-09-28T20:54:38.089Z,96775.08
2022-09-28T20:57:17.551Z,96780.39
2022-09-28T20:59:51.006Z,96774.10
2022-09-28T21:02:22.828Z,96774.17
2022-09-28T21:04:51.154Z,96774.02
2022-09-28T21:07:19.295Z,96771.04
2022-09-28T21:09:48.523Z,96775.77
2022-09-28T21:12:17.176Z,96780.18
2022-09-28T21:14:45.254Z,96778.42
2022-09-28T21:17:13.688Z,96779.08
2022-09-28T21:19:41.739Z,96785.08
2022-09-28T21:22:09.840Z,96784.10
2022-09-28T21:24:38.004Z,96784.40
2022-09-28T21:27:06.081Z,96785.45
2022-09-28T21:29:34.192Z,96778.41
2022-09-28T21:32:02.248Z,96781.63
2022-09-28T21:34:30.337Z,96780.07
2022-09-28T21:36:58.440Z,96781.00
2022-09-28T21:39:26.495Z,96785.85
2022-09-28T21:41:54.583Z,96791.49
2022-09-28T21:44:22.684Z,96789.17
2022-09-28T21:46:50.831Z,96794.63
2022-09-28T21:49:19.580Z,96794.44
2022-09-28T21:51:47.675Z,96795.55
2022-09-28T21:54:15.776Z,96792.74
2022-09-28T21:56:43.925Z,96796.76
2022-09-28T21:59:12.019Z,96794.77
2022-09-28T22:01:42.675Z,96796.70
2022-09-28T22:04:11.202Z,96797.10
2022-09-28T22:06:39.800Z,96797.54
2022-09-28T22:09:08.124Z,96793.03
2022-09-28T22:11:36.883Z,96795.01
2022-09-28T22:14:04.951Z,96791.67
2022-09-28T22:16:33.087Z,96793.23
2022-09-28T22:19:01.572Z,96796.61
2022-09-28T22:21:34.885Z,96797.25
2022-09-28T22:24:07.078Z,96791.94
2022-09-28T22:26:37.435Z,96791.98
2022-09-28T22:29:08.984Z,96801.16
2022-09-28T22:31:40.106Z,96800.89
2022-09-28T22:34:09.226Z,96797.92
2022-09-28T22:36:37.522Z,96798.02
2022-09-28T22:39:06.165Z,96797.30
2022-09-28T22:41:35.647Z,96797.49
2022-09-28T22:44:03.849Z,96798.39
2022-09-28T22:46:32.815Z,96797.06
2022-09-28T22:49:01.808Z,96795.13
2022-09-28T22:51:31.325Z,96793.68
2022-09-28T22:53:59.681Z,96793.84
2022-09-28T22:56:28.628Z,96794.83
2022-09-28T22:58:56.800Z,96795.27
2022-09-28T23:01:30.609Z,96799.04
2022-09-28T23:03:59.603Z,96806.38
2022-09-28T23:06:30.946Z,96809.09
2022-09-28T23:08:59.740Z,96803.64
2022-09-28T23:11:29.701Z,96800.88
2022-09-28T23:14:00.056Z,96803.81
2022-09-28T23:16:28.316Z,96792.94
2022-09-28T23:18:56.967Z,96789.81
2022-09-28T23:21:27.300Z,96788.20
2022-09-28T23:24:03.725Z,96790.94
2022-09-28T23:26:34.235Z,96785.66
2022-09-28T23:29:02.583Z,96779.09
2022-09-28T23:31:33.144Z,96773.65
2022-09-28T23:34:05.038Z,96770.04
2022-09-28T23:36:34.628Z,96774.88
2022-09-28T23:39:03.850Z,96776.55
2022-09-28T23:41:32.528Z,96770.52
2022-09-28T23:44:00.748Z,96772.66
2022-09-28T23:46:28.880Z,96766.66
2022-09-28T23:48:57.054Z,96770.40
2022-09-28T23:51:25.332Z,96762.69
2022-09-28T23:53:53.415Z,96755.60
2022-09-28T23:56:21.692Z,96759.27
2022-09-28T23:58:49.797Z,96762.48
